createdAt,value
2019-02-07T00:02:19.106Z,1.03
2019-02-07T00:04:47.479Z,1.10
2019-02-07T00:07:15.863Z,1.09
2019-02-07T00:09:44.386Z,1.10
2019-02-07T00:12:13.339Z,1.05
2019-02-07T00:14:41.726Z,1.01
2019-02-07T00:17:10.336Z,0.92
2019-02-07T00:19:38.781Z,1.01
2019-02-07T00:22:07.845Z,1.17
2019-02-07T00:24:42.935Z,1.30
2019-02-07T00:27:07.549Z,1.29
2019-02-07T00:29:35.988Z,1.25
2019-02-07T00:32:04.435Z,1.27
2019-02-07T00:34:32.838Z,1.29
2019-02-07T00:37:01.586Z,1.11
2019-02-07T00:39:30.581Z,1.14
2019-02-07T00:41:58.935Z,1.31
2019-02-07T00:44:27.269Z,1.27
2019-02-07T00:46:55.614Z,1.21
2019-02-07T00:49:23.974Z,1.28
2019-02-07T00:51:52.461Z,1.35
2019-02-07T00:54:20.832Z,1.29
2019-02-07T00:56:49.207Z,1.33
2019-02-07T00:59:17.575Z,1.29
2019-02-07T01:01:45.956Z,1.30
2019-02-07T01:04:14.374Z,1.32
2019-02-07T01:06:42.719Z,1.26
2019-02-07T01:09:12.311Z,1.06
2019-02-07T01:11:40.765Z,0.84
2019-02-07T01:14:09.564Z,0.79
2019-02-07T01:16:37.962Z,0.67
2019-02-07T01:19:06.377Z,0.61
2019-02-07T01:21:35.690Z,0.62
2019-02-07T01:24:04.398Z,0.64
2019-02-07T01:26:32.733Z,0.62
2019-02-07T01:29:01.091Z,0.72
2019-02-07T01:31:29.422Z,0.70
2019-02-07T01:33:57.844Z,0.64
2019-02-07T01:36:26.207Z,0.65
2019-02-07T01:38:54.571Z,0.57
2019-02-07T01:41:23.040Z,0.57
2019-02-07T01:43:51.544Z,0.54
2019-02-07T01:46:19.883Z,0.52
2019-02-07T01:48:48.257Z,0.53
2019-02-07T01:51:16.629Z,0.50
2019-02-07T01:53:44.976Z,0.40
2019-02-07T01:56:13.405Z,0.46
2019-02-07T01:58:41.735Z,0.54
2019-02-07T02:01:10.672Z,0.49
2019-02-07T02:03:39.074Z,0.46
2019-02-07T02:06:07.544Z,0.49
2019-02-07T02:08:35.928Z,0.43
2019-02-07T02:11:04.458Z,0.47
2019-02-07T02:13:33.418Z,0.61
2019-02-07T02:16:01.834Z,0.53
2019-02-07T02:18:30.288Z,0.57
2019-02-07T02:20:58.656Z,0.80
2019-02-07T02:23:26.990Z,0.95
2019-02-07T02:25:55.398Z,0.82
2019-02-07T02:28:24.429Z,0.81
2019-02-07T02:30:52.864Z,0.89
2019-02-07T02:33:21.358Z,0.75
2019-02-07T02:35:50.224Z,0.77
2019-02-07T02:38:19.089Z,0.61
2019-02-07T02:40:47.452Z,0.60
2019-02-07T02:43:15.861Z,0.50
2019-02-07T02:45:44.484Z,0.48
2019-02-07T02:48:13.070Z,0.55
2019-02-07T02:50:41.401Z,0.57
2019-02-07T02:53:10.178Z,0.46
2019-02-07T02:55:40.525Z,0.41
2019-02-07T02:58:09.196Z,0.52
2019-02-07T03:00:38.365Z,0.47
2019-02-07T03:03:09.705Z,0.59
2019-02-07T03:05:41.878Z,0.63
2019-02-07T03:08:13.073Z,0.69
2019-02-07T03:10:45.153Z,0.72
2019-02-07T03:13:15.131Z,0.66
2019-02-07T03:15:49.697Z,0.53
2019-02-07T03:18:18.615Z,0.49
2019-02-07T03:20:49.597Z,0.37
2019-02-07T03:23:20.561Z,0.36
2019-02-07T03:25:50.285Z,0.54
2019-02-07T03:28:22.254Z,0.71
2019-02-07T03:30:53.255Z,0.75
2019-02-07T03:33:24.415Z,0.91
2019-02-07T03:35:54.151Z,0.99
2019-02-07T03:38:25.348Z,1.02
2019-02-07T03:40:56.518Z,1.05
2019-02-07T03:43:27.261Z,1.14
2019-02-07T03:46:02.864Z,1.07
2019-02-07T03:48:33.212Z,1.20
2019-02-07T03:51:04.711Z,1.21
2019-02-07T03:53:36.822Z,1.22
2019-02-07T03:56:07.072Z,1.32
2019-02-07T03:58:38.189Z,1.32
2019-02-07T04:01:07.326Z,1.45
2019-02-07T04:03:39.307Z,1.45
2019-02-07T04:06:11.850Z,1.75
2019-02-07T04:08:42.687Z,1.56
2019-02-07T04:11:14.081Z,1.37
2019-02-07T04:13:44.244Z,1.23
2019-02-07T04:16:15.384Z,0.92
2019-02-07T04:18:47.110Z,0.58
2019-02-07T04:21:20.171Z,0.66
2019-02-07T04:23:52.076Z,0.68
2019-02-07T04:26:24.115Z,0.61
2019-02-07T04:28:56.243Z,0.63
2019-02-07T04:31:26.705Z,0.80
2019-02-07T04:33:57.001Z,0.91
2019-02-07T04:36:25.333Z,0.80
2019-02-07T04:38:56.478Z,0.86
2019-02-07T04:41:28.446Z,0.96
2019-02-07T04:43:58.058Z,1.14
2019-02-07T04:46:28.787Z,1.37
2019-02-07T04:49:00.828Z,1.42
2019-02-07T04:51:31.816Z,1.33
2019-02-07T04:54:02.963Z,1.23
2019-02-07T04:56:32.004Z,1.49
2019-02-07T04:59:03.117Z,1.60
2019-02-07T05:01:34.291Z,1.36
2019-02-07T05:04:05.290Z,1.35
2019-02-07T05:06:36.212Z,1.54
2019-02-07T05:09:09.206Z,1.50
2019-02-07T05:11:40.196Z,1.36
2019-02-07T05:14:09.703Z,1.38
2019-02-07T05:16:43.657Z,1.59
2019-02-07T05:19:15.327Z,1.61
2019-02-07T05:21:47.418Z,1.71
2019-02-07T05:24:19.469Z,1.59
2019-02-07T05:26:52.440Z,1.67
2019-02-07T05:29:22.866Z,1.67
2019-02-07T05:31:55.897Z,1.70
2019-02-07T05:34:26.607Z,1.64
2019-02-07T05:36:57.714Z,1.54
2019-02-07T05:39:27.448Z,1.67
2019-02-07T05:41:59.585Z,1.57
2019-02-07T05:44:30.020Z,1.51
2019-02-07T05:47:03.135Z,1.69
2019-02-07T05:49:34.073Z,1.76
2019-02-07T05:52:06.032Z,1.76
2019-02-07T05:54:38.152Z,1.80
2019-02-07T05:57:10.139Z,1.80
2019-02-07T05:59:40.928Z,1.82
2019-02-07T06:02:11.181Z,1.77
2019-02-07T06:04:40.413Z,1.63
2019-02-07T06:07:11.151Z,1.49
2019-02-07T06:09:40.943Z,1.71
2019-02-07T06:12:12.105Z,1.61
2019-02-07T06:14:40.772Z,1.61
2019-02-07T06:17:11.635Z,1.70
2019-02-07T06:19:42.713Z,1.64
2019-02-07T06:22:12.207Z,1.47
2019-02-07T06:24:42.494Z,1.40
2019-02-07T06:27:13.518Z,1.63
2019-02-07T06:29:45.523Z,1.50
2019-02-07T06:32:16.145Z,1.44
2019-02-07T06:34:48.023Z,1.36
2019-02-07T06:37:20.150Z,1.35
2019-02-07T06:39:50.445Z,1.52
2019-02-07T06:42:21.652Z,1.64
2019-02-07T06:44:54.791Z,1.86
2019-02-07T06:47:25.710Z,1.63
2019-02-07T06:49:57.724Z,1.94
2019-02-07T06:52:28.726Z,1.88
2019-02-07T06:54:58.839Z,1.93
2019-02-07T06:57:30.026Z,2.12
2019-02-07T06:59:58.706Z,2.14
2019-02-07T07:02:29.329Z,2.06
2019-02-07T07:04:59.606Z,2.01
2019-02-07T07:07:29.651Z,1.86
2019-02-07T07:09:59.173Z,1.98
2019-02-07T07:12:27.858Z,2.27
2019-02-07T07:14:59.949Z,2.35
2019-02-07T07:17:30.993Z,2.42
2019-02-07T07:20:00.998Z,2.48
2019-02-07T07:22:31.853Z,2.41
2019-02-07T07:25:02.654Z,2.54
2019-02-07T07:27:32.444Z,2.17
2019-02-07T07:30:03.556Z,1.88
2019-02-07T07:32:34.682Z,1.61
2019-02-07T07:35:07.464Z,1.57
2019-02-07T07:37:39.062Z,1.52
2019-02-07T07:40:12.341Z,1.44
2019-02-07T07:42:44.227Z,1.66
2019-02-07T07:45:18.207Z,1.74
2019-02-07T07:47:50.253Z,2.08
2019-02-07T07:53:12.386Z,1.87
2019-02-07T07:55:42.555Z,1.88
2019-02-07T08:01:19.161Z,1.90
2019-02-07T08:03:51.124Z,2.13
2019-02-07T08:06:21.406Z,2.25
2019-02-07T08:08:51.191Z,2.37
2019-02-07T08:11:21.574Z,2.49
2019-02-07T08:13:50.674Z,2.50
2019-02-07T08:16:20.314Z,2.74
2019-02-07T08:18:50.915Z,2.82
2019-02-07T08:21:22.951Z,2.66
2019-02-07T08:23:53.657Z,2.80
2019-02-07T08:26:24.741Z,2.75
2019-02-07T08:28:53.478Z,2.67
2019-02-07T08:31:25.592Z,2.84
2019-02-07T08:33:56.615Z,2.79
2019-02-07T08:36:31.631Z,2.92
2019-02-07T08:39:03.482Z,2.76
2019-02-07T08:44:32.213Z,2.93
2019-02-07T08:47:14.931Z,2.93
2019-02-07T08:49:45.659Z,2.83
2019-02-07T08:52:17.744Z,3.03
2019-02-07T08:54:48.614Z,3.04
2019-02-07T08:57:19.640Z,2.88
2019-02-07T08:59:51.025Z,3.03
2019-02-07T09:02:22.005Z,3.23
2019-02-07T09:04:53.056Z,3.22
2019-02-07T09:07:23.395Z,3.18
2019-02-07T09:09:56.486Z,3.14
2019-02-07T09:12:27.893Z,3.29
2019-02-07T09:15:13.101Z,3.19
2019-02-07T09:17:43.842Z,2.78
2019-02-07T09:20:17.502Z,2.75
2019-02-07T09:22:52.545Z,2.63
2019-02-07T09:25:26.413Z,3.04
2019-02-07T09:27:57.551Z,3.37
2019-02-07T09:30:28.604Z,3.47
2019-02-07T09:32:57.826Z,3.23
2019-02-07T09:35:28.538Z,3.41
2019-02-07T09:38:01.522Z,3.47
2019-02-07T09:40:31.921Z,3.53
2019-02-07T09:43:02.257Z,3.44
2019-02-07T09:45:31.869Z,3.38
2019-02-07T09:48:04.205Z,3.44
2019-02-07T09:50:35.205Z,3.56
2019-02-07T09:53:05.563Z,3.58
2019-02-07T09:55:36.842Z,3.69
2019-02-07T09:58:07.443Z,3.85
2019-02-07T10:00:39.719Z,3.77
2019-02-07T10:03:08.402Z,3.61
2019-02-07T10:05:39.392Z,3.60
2019-02-07T10:08:10.575Z,3.65
2019-02-07T10:10:42.743Z,3.67
2019-02-07T10:13:12.491Z,3.67
2019-02-07T10:15:43.288Z,3.81
2019-02-07T10:18:16.372Z,3.84
2019-02-07T10:20:47.606Z,3.95
2019-02-07T10:23:18.035Z,3.97
2019-02-07T10:25:51.266Z,3.96
2019-02-07T10:28:22.343Z,3.88
2019-02-07T10:30:55.464Z,3.99
2019-02-07T10:33:25.159Z,3.99
2019-02-07T10:35:56.269Z,4.13
2019-02-07T10:38:25.585Z,3.95
2019-02-07T10:40:54.345Z,4.00
2019-02-07T10:43:25.369Z,3.72
2019-02-07T10:45:58.461Z,3.53
2019-02-07T10:48:29.283Z,3.41
2019-02-07T10:51:03.473Z,3.63
2019-02-07T10:53:34.670Z,3.75
2019-02-07T10:56:05.981Z,3.52
2019-02-07T10:58:36.285Z,3.44
2019-02-07T11:01:08.717Z,3.78
2019-02-07T11:03:40.731Z,3.95
2019-02-07T11:06:11.350Z,3.78
2019-02-07T11:08:42.579Z,3.85
2019-02-07T11:11:14.617Z,4.01
2019-02-07T11:13:46.306Z,3.81
2019-02-07T11:16:17.405Z,3.97
2019-02-07T11:18:55.320Z,3.90
2019-02-07T11:21:21.758Z,4.18
2019-02-07T11:23:53.794Z,4.00
2019-02-07T11:26:25.789Z,3.97
2019-02-07T11:28:58.112Z,4.03
2019-02-07T11:31:28.923Z,4.17
2019-02-07T11:34:00.089Z,4.06
2019-02-07T11:36:31.792Z,4.39
2019-02-07T11:39:03.953Z,4.42
2019-02-07T11:41:34.420Z,4.39
2019-02-07T11:44:06.370Z,4.37
2019-02-07T11:46:38.418Z,4.56
2019-02-07T11:49:07.984Z,4.52
2019-02-07T11:51:39.883Z,4.39
2019-02-07T11:54:12.369Z,4.34
2019-02-07T11:56:43.553Z,4.27
2019-02-07T11:59:14.625Z,4.29
2019-02-07T12:01:45.758Z,4.31
2019-02-07T12:04:16.627Z,4.53
2019-02-07T12:06:49.118Z,4.62
2019-02-07T12:09:21.104Z,4.46
2019-02-07T12:11:53.121Z,4.52
2019-02-07T12:14:22.310Z,4.50
2019-02-07T12:16:54.271Z,4.75
2019-02-07T12:19:24.285Z,4.51
2019-02-07T12:21:55.838Z,4.74
2019-02-07T12:24:28.000Z,4.58
2019-02-07T12:26:59.181Z,4.60
2019-02-07T12:29:31.114Z,4.76
2019-02-07T12:32:02.241Z,4.62
2019-02-07T12:34:35.136Z,4.61
2019-02-07T12:37:04.540Z,4.78
2019-02-07T12:39:36.373Z,4.72
2019-02-07T12:42:07.350Z,4.60
2019-02-07T12:44:39.203Z,4.53
2019-02-07T12:47:12.106Z,4.72
2019-02-07T12:49:43.285Z,4.59
2019-02-07T12:52:14.589Z,4.55
2019-02-07T12:54:45.662Z,4.41
2019-02-07T12:57:14.636Z,4.39
2019-02-07T12:59:46.803Z,4.44
2019-02-07T13:02:17.559Z,4.65
2019-02-07T13:04:52.159Z,4.58
2019-02-07T13:07:24.343Z,4.79
2019-02-07T13:09:55.642Z,4.47
2019-02-07T13:12:28.623Z,4.55
2019-02-07T13:14:59.793Z,4.54
2019-02-07T13:17:30.868Z,4.63
2019-02-07T13:20:03.100Z,4.82
2019-02-07T13:22:35.372Z,5.00
2019-02-07T13:25:08.462Z,5.23
2019-02-07T13:27:40.680Z,5.28
2019-02-07T13:30:15.600Z,5.13
2019-02-07T13:32:47.838Z,5.12
2019-02-07T13:35:18.725Z,5.05
2019-02-07T13:37:54.782Z,5.09
2019-02-07T13:40:24.709Z,5.14
2019-02-07T13:42:56.658Z,5.19
2019-02-07T13:45:29.293Z,4.98
2019-02-07T13:48:00.336Z,5.11
2019-02-07T13:50:32.581Z,5.21
2019-02-07T13:53:04.933Z,5.34
2019-02-07T13:55:37.470Z,5.44
2019-02-07T13:58:10.808Z,5.47
2019-02-07T14:00:42.177Z,5.61
2019-02-07T14:03:13.958Z,5.36
2019-02-07T14:05:45.110Z,5.53
2019-02-07T14:08:15.340Z,5.62
2019-02-07T14:10:44.497Z,5.48
2019-02-07T14:13:16.772Z,5.60
2019-02-07T14:15:48.813Z,5.59
2019-02-07T14:18:20.957Z,5.45
2019-02-07T14:20:53.073Z,5.73
2019-02-07T14:23:25.069Z,5.85
2019-02-07T14:25:53.781Z,5.71
2019-02-07T14:28:24.164Z,5.93
2019-02-07T14:30:52.808Z,5.86
2019-02-07T14:33:23.822Z,5.99
2019-02-07T14:35:54.850Z,6.05
2019-02-07T14:38:26.881Z,5.96
2019-02-07T14:40:58.883Z,5.82
2019-02-07T14:43:29.842Z,5.88
2019-02-07T14:46:00.503Z,5.91
2019-02-07T14:48:29.173Z,6.00
2019-02-07T14:50:57.572Z,5.90
2019-02-07T14:53:25.956Z,5.89
2019-02-07T14:55:54.392Z,5.75
2019-02-07T14:58:22.741Z,5.78
2019-02-07T15:00:51.078Z,5.83
2019-02-07T15:03:19.405Z,5.66
2019-02-07T15:05:48.094Z,5.77
2019-02-07T15:08:16.534Z,5.60
2019-02-07T15:10:45.003Z,5.65
2019-02-07T15:13:13.770Z,5.64
2019-02-07T15:15:42.091Z,5.88
2019-02-07T15:18:10.598Z,5.83
2019-02-07T15:20:39.378Z,5.73
2019-02-07T15:23:08.234Z,5.70
2019-02-07T15:25:36.616Z,5.74
2019-02-07T15:28:05.253Z,5.78
2019-02-07T15:30:33.674Z,5.64
2019-02-07T15:33:01.997Z,5.60
2019-02-07T15:35:32.538Z,5.66
2019-02-07T15:38:01.110Z,5.67
2019-02-07T15:40:29.770Z,5.64
2019-02-07T15:42:58.443Z,5.59
2019-02-07T15:45:27.332Z,5.49
2019-02-07T15:47:55.711Z,5.54
2019-02-07T15:50:37.353Z,5.68
2019-02-07T15:52:58.392Z,5.58
2019-02-07T15:55:26.942Z,5.53
2019-02-07T15:57:55.566Z,5.59
2019-02-07T16:00:28.146Z,5.62
2019-02-07T16:02:59.606Z,5.65
2019-02-07T16:05:28.059Z,5.64
2019-02-07T16:07:56.445Z,5.62
2019-02-07T16:10:24.774Z,5.57
2019-02-07T16:12:53.164Z,5.49
2019-02-07T16:15:21.675Z,5.36
2019-02-07T16:17:50.066Z,5.39
2019-02-07T16:20:20.358Z,5.31
2019-02-07T16:22:48.790Z,5.15
2019-02-07T16:25:17.441Z,5.11
2019-02-07T16:27:45.838Z,5.14
2019-02-07T16:30:17.015Z,5.18
2019-02-07T16:32:45.461Z,5.02
2019-02-07T16:35:16.518Z,4.96
2019-02-07T16:37:45.040Z,4.99
2019-02-07T16:40:15.510Z,4.99
2019-02-07T16:42:44.739Z,4.92
2019-02-07T16:45:18.300Z,4.90
2019-02-07T16:47:46.646Z,4.92
2019-02-07T16:50:17.862Z,4.84
2019-02-07T16:52:46.276Z,4.84
2019-02-07T16:55:14.638Z,4.90
2019-02-07T16:57:43.157Z,4.85
2019-02-07T17:00:15.480Z,4.93
2019-02-07T17:02:44.193Z,4.69
2019-02-07T17:05:13.774Z,4.67
2019-02-07T17:07:42.271Z,4.55
2019-02-07T17:10:14.863Z,4.53
2019-02-07T17:12:43.430Z,4.43
2019-02-07T17:15:16.910Z,4.37
2019-02-07T17:17:45.523Z,4.42
2019-02-07T17:20:16.765Z,4.38
2019-02-07T17:22:47.489Z,4.36
2019-02-07T17:25:15.915Z,4.29
2019-02-07T17:27:44.419Z,4.39
2019-02-07T17:30:17.597Z,4.50
2019-02-07T17:32:46.329Z,4.42
2019-02-07T17:35:15.867Z,4.35
2019-02-07T17:37:44.507Z,4.26
2019-02-07T17:40:17.361Z,4.27
2019-02-07T17:42:46.125Z,4.13
2019-02-07T17:45:18.183Z,4.12
2019-02-07T17:47:47.074Z,4.07
2019-02-07T17:50:20.546Z,4.21
2019-02-07T17:52:50.396Z,4.13
2019-02-07T17:55:21.251Z,4.08
2019-02-07T17:57:49.621Z,4.02
2019-02-07T18:00:24.469Z,4.05
2019-02-07T18:02:52.979Z,4.11
2019-02-07T18:05:21.390Z,4.02
2019-02-07T18:07:49.814Z,3.96
2019-02-07T18:10:18.382Z,3.99
2019-02-07T18:12:46.860Z,4.02
2019-02-07T18:15:15.248Z,4.06
2019-02-07T18:17:44.074Z,4.04
2019-02-07T18:20:19.736Z,3.99
2019-02-07T18:22:48.206Z,4.05
2019-02-07T18:25:17.335Z,4.11
2019-02-07T18:27:45.817Z,4.02
2019-02-07T18:30:17.958Z,4.16
2019-02-07T18:32:46.815Z,4.08
2019-02-07T18:35:16.895Z,4.23
2019-02-07T18:37:45.506Z,4.08
2019-02-07T18:40:17.755Z,4.15
2019-02-07T18:42:46.147Z,4.17
2019-02-07T18:45:16.026Z,4.17
2019-02-07T18:47:44.719Z,4.19
2019-02-07T18:50:18.158Z,4.24
2019-02-07T18:52:46.526Z,4.24
2019-02-07T18:55:15.108Z,4.29
2019-02-07T18:57:43.524Z,4.46
2019-02-07T19:00:17.028Z,4.50
2019-02-07T19:02:45.380Z,4.53
2019-02-07T19:05:18.170Z,4.39
2019-02-07T19:07:46.667Z,4.44
2019-02-07T19:10:17.219Z,4.56
2019-02-07T19:12:45.848Z,4.65
2019-02-07T19:15:18.595Z,4.83
2019-02-07T19:17:47.572Z,4.95
2019-02-07T19:20:18.120Z,5.04
2019-02-07T19:22:46.812Z,5.10
2019-02-07T19:25:16.708Z,5.15
2019-02-07T19:27:45.204Z,5.16
2019-02-07T19:30:20.524Z,5.13
2019-02-07T19:32:49.101Z,4.99
2019-02-07T19:35:17.513Z,4.84
2019-02-07T19:37:45.927Z,4.74
2019-02-07T19:40:16.821Z,4.68
2019-02-07T19:42:45.356Z,4.59
2019-02-07T19:45:16.916Z,4.49
2019-02-07T19:47:45.539Z,4.35
2019-02-07T19:50:17.841Z,4.33
2019-02-07T19:52:46.606Z,4.26
2019-02-07T19:55:16.359Z,4.23
2019-02-07T19:57:45.230Z,4.29
2019-02-07T20:00:19.743Z,4.19
2019-02-07T20:02:49.040Z,4.07
2019-02-07T20:05:17.701Z,4.11
2019-02-07T20:07:46.976Z,4.08
2019-02-07T20:10:17.447Z,4.14
2019-02-07T20:12:47.186Z,4.16
2019-02-07T20:15:19.855Z,4.13
2019-02-07T20:17:48.205Z,4.06
2019-02-07T20:20:17.142Z,4.00
2019-02-07T20:22:47.927Z,3.98
2019-02-07T20:25:18.350Z,3.99
2019-02-07T20:27:46.856Z,3.98
2019-02-07T20:30:18.698Z,3.92
2019-02-07T20:32:47.184Z,3.87
2019-02-07T20:35:15.890Z,3.82
2019-02-07T20:37:44.267Z,3.91
2019-02-07T20:40:17.138Z,3.88
2019-02-07T20:42:46.580Z,3.91
2019-02-07T20:45:15.494Z,3.91
2019-02-07T20:47:44.312Z,3.92
2019-02-07T20:50:18.089Z,3.90
2019-02-07T20:52:46.827Z,3.81
2019-02-07T20:55:15.679Z,3.83
2019-02-07T20:57:44.029Z,3.85
2019-02-07T21:00:19.164Z,3.84
2019-02-07T21:02:47.743Z,3.85
2019-02-07T21:05:16.878Z,3.89
2019-02-07T21:07:45.396Z,3.78
2019-02-07T21:10:16.740Z,3.95
2019-02-07T21:12:45.152Z,3.97
2019-02-07T21:15:18.801Z,3.85
2019-02-07T21:17:47.240Z,3.85
2019-02-07T21:20:18.122Z,3.83
2019-02-07T21:22:46.609Z,3.85
2019-02-07T21:25:16.421Z,3.84
2019-02-07T21:27:44.839Z,4.03
2019-02-07T21:30:17.621Z,3.97
2019-02-07T21:32:46.534Z,3.94
2019-02-07T21:35:17.652Z,3.96
2019-02-07T21:37:46.232Z,3.94
2019-02-07T21:40:17.894Z,3.89
2019-02-07T21:42:46.426Z,3.92
2019-02-07T21:45:16.759Z,4.09
2019-02-07T21:47:45.244Z,4.04
2019-02-07T21:50:15.890Z,3.90
2019-02-07T21:52:44.260Z,4.05
2019-02-07T21:55:15.332Z,4.06
2019-02-07T21:57:43.923Z,4.10
2019-02-07T22:00:17.178Z,4.09
2019-02-07T22:02:45.759Z,4.07
2019-02-07T22:05:16.016Z,4.24
2019-02-07T22:07:44.490Z,4.32
2019-02-07T22:10:15.863Z,4.53
2019-02-07T22:12:44.710Z,4.65
2019-02-07T22:15:20.072Z,4.71
2019-02-07T22:17:50.042Z,4.73
2019-02-07T22:20:21.695Z,4.81
2019-02-07T22:22:50.271Z,4.82
2019-02-07T22:25:20.834Z,5.05
2019-02-07T22:27:49.178Z,4.95
2019-02-07T22:30:18.901Z,4.87
2019-02-07T22:32:47.584Z,4.71
2019-02-07T22:35:16.549Z,4.62
2019-02-07T22:37:45.047Z,4.56
2019-02-07T22:40:16.477Z,4.52
2019-02-07T22:42:48.053Z,4.37
2019-02-07T22:45:17.983Z,4.34
2019-02-07T22:47:46.941Z,4.37
2019-02-07T22:50:17.065Z,4.39
2019-02-07T22:52:45.484Z,4.43
2019-02-07T22:55:15.076Z,4.53
2019-02-07T22:57:43.499Z,4.73
2019-02-07T23:00:18.386Z,4.77
2019-02-07T23:02:46.808Z,4.82
2019-02-07T23:05:15.157Z,4.83
2019-02-07T23:07:43.573Z,4.95
2019-02-07T23:10:12.780Z,4.95
2019-02-07T23:12:41.170Z,5.05
2019-02-07T23:15:09.918Z,4.97
2019-02-07T23:17:38.708Z,4.93
2019-02-07T23:20:10.115Z,4.85
2019-02-07T23:22:38.412Z,4.89
2019-02-07T23:25:08.758Z,4.86
2019-02-07T23:27:37.202Z,4.75
2019-02-07T23:30:10.735Z,4.76
2019-02-07T23:32:39.154Z,4.74
2019-02-07T23:35:09.264Z,4.68
2019-02-07T23:37:37.561Z,4.56
2019-02-07T23:40:10.925Z,4.65
2019-02-07T23:42:39.317Z,4.59
2019-02-07T23:45:11.223Z,4.56
2019-02-07T23:47:39.574Z,4.61
2019-02-07T23:50:10.340Z,4.45
2019-02-07T23:52:38.703Z,4.35
2019-02-07T23:55:11.686Z,4.29
2019-02-07T23:57:40.114Z,4.38
